首页
METAR-TAF:

METAR-TAF

机场 :

Vero Beach Municipal Airport

Vero Beach, 佛罗里达州, 美国

纬度: 27-39-20N, 经度: 080-25-05W, 海拔: 7米

当前天气观测

该预报发布于22分钟前的03:53 UTC
风速8节,风向西
温度 23°C
湿度 73%
气压 1017 hPa
能見度: 16.1公里
天空无云

METAR: KVRB 210353Z AUTO 28008KT 10SM CLR 23/18 A3004 RMK AO2 SLP171 T02280183

时间: 23:15 (04:15 UTC)

预报

该预报发布于4小时和39分钟前的23:36 UTC
预报有效从21日的 00点(UTC)到 21日的 24点(UTC)
风速9节,风向东南
能見度: 10公里
散云层高于2500英尺
散云层高于5000英尺
从 21日的 0200点(UTC)
风速8节,风向西转西南
能見度: 10公里
散云层高于4000英尺
从 21日的 0600点(UTC)
风速9节,风向西北
能見度: 10公里
阴天层高于1000英尺
从 21日的 1100点(UTC)
风速10节,风向
能見度: 10公里
阴天层高于1000英尺
附近有阵雨
从 21日的 1400点(UTC)
风速11节,风向,有时为18节阵风
能見度: 10公里
阴天层高于1000英尺
附近有阵雨
从 21日的 1700点(UTC)
风速15节,风向,有时为25节阵风
能見度: 10公里
多云层高于2000英尺

TAF: KVRB 202336Z 2100/2124 14009KT P6SM SCT025 SCT050 FM210200 25008KT P6SM SCT040 FM210600 31009KT P6SM OVC010 FM211100 35010KT P6SM VCSH OVC010 FM211400 36011G18KT P6SM VCSH OVC010 FM211700 35015G25KT P6SM BKN020

超过4000个机场的气象观测和天气预报(METAR&TAF报告)。

可查询的气象台以黄色和红色小点在地图上表示。

将鼠标移到小点上方,可查看气象台名称。

然后点击查看天气观测和预报。

如需切换地图:点击带黑十字的绿色按钮放大地图;点击带横线的绿色按钮缩小地图;或者点击绿色箭头查看邻近地区的地图。


METAR-TAF: